sensor_id;sensor_type;location;lat;lon;timestamp;temperature;humidity
30459;DHT22;17254;50.976;7.034;2023-06-14T00:00:00;16.50;18.40
30459;DHT22;17254;50.976;7.034;2023-06-14T00:00:07;16.40;18.40
30459;DHT22;17254;50.976;7.034;2023-06-14T00:00:15;16.50;18.40
30459;DHT22;17254;50.976;7.034;2023-06-14T00:00:21;16.40;18.40
30459;DHT22;17254;50.976;7.034;2023-06-14T00:00:28;16.50;18.60
30459;DHT22;17254;50.976;7.034;2023-06-14T00:00:33;16.40;18.70
30459;DHT22;17254;50.976;7.034;2023-06-14T00:00:40;16.40;18.70
30459;DHT22;17254;50.976;7.034;2023-06-14T00:00:46;16.40;18.70
30459;DHT22;17254;50.976;7.034;2023-06-14T00:00:54;16.40;18.80
30459;DHT22;17254;50.976;7.034;2023-06-14T00:01:02;16.40;18.80
30459;DHT22;17254;50.976;7.034;2023-06-14T00:01:08;16.40;18.80
30459;DHT22;17254;50.976;7.034;2023-06-14T00:01:15;16.40;18.90
30459;DHT22;17254;50.976;7.034;2023-06-14T00:01:21;16.40;19.00
30459;DHT22;17254;50.976;7.034;2023-06-14T00:01:27;16.40;19.00
30459;DHT22;17254;50.976;7.034;2023-06-14T00:01:34;16.40;19.10
30459;DHT22;17254;50.976;7.034;2023-06-14T00:01:40;16.40;19.20
30459;DHT22;17254;50.976;7.034;2023-06-14T00:01:46;16.40;19.30
30459;DHT22;17254;50.976;7.034;2023-06-14T00:01:52;16.40;19.30
30459;DHT22;17254;50.976;7.034;2023-06-14T00:01:58;16.40;19.40
30459;DHT22;17254;50.976;7.034;2023-06-14T00:02:04;16.40;19.50
30459;DHT22;17254;50.976;7.034;2023-06-14T00:02:13;16.40;19.70
30459;DHT22;17254;50.976;7.034;2023-06-14T00:02:19;16.40;19.70
30459;DHT22;17254;50.976;7.034;2023-06-14T00:02:25;16.40;19.70
30459;DHT22;17254;50.976;7.034;2023-06-14T00:02:31;16.40;19.80
30459;DHT22;17254;50.976;7.034;2023-06-14T00:02:39;16.40;19.80
30459;DHT22;17254;50.976;7.034;2023-06-14T00:02:45;16.40;19.80
30459;DHT22;17254;50.976;7.034;2023-06-14T00:02:50;16.40;19.80
30459;DHT22;17254;50.976;7.034;2023-06-14T00:02:56;16.40;19.80
30459;DHT22;17254;50.976;7.034;2023-06-14T00:03:03;16.40;20.00
30459;DHT22;17254;50.976;7.034;2023-06-14T00:03:10;16.40;20.30
30459;DHT22;17254;50.976;7.034;2023-06-14T00:03:17;16.40;20.30
30459;DHT22;17254;50.976;7.034;2023-06-14T00:03:23;16.40;20.30
30459;DHT22;17254;50.976;7.034;2023-06-14T00:03:30;16.40;20.30
30459;DHT22;17254;50.976;7.034;2023-06-14T00:03:37;16.40;20.30
30459;DHT22;17254;50.976;7.034;2023-06-14T00:03:44;16.40;20.40
30459;DHT22;17254;50.976;7.034;2023-06-14T00:03:50;16.50;20.50
30459;DHT22;17254;50.976;7.034;2023-06-14T00:03:56;16.50;20.50
30459;DHT22;17254;50.976;7.034;2023-06-14T00:04:02;16.50;20.40
30459;DHT22;17254;50.976;7.034;2023-06-14T00:04:09;16.50;20.30
30459;DHT22;17254;50.976;7.034;2023-06-14T00:04:15;16.50;20.30
30459;DHT22;17254;50.976;7.034;2023-06-14T00:04:22;16.50;20.30
30459;DHT22;17254;50.976;7.034;2023-06-14T00:04:30;16.50;20.20
30459;DHT22;17254;50.976;7.034;2023-06-14T00:04:37;16.50;20.30
30459;DHT22;17254;50.976;7.034;2023-06-14T00:04:44;16.50;20.40
30459;DHT22;17254;50.976;7.034;2023-06-14T00:04:51;16.60;20.90
30459;DHT22;17254;50.976;7.034;2023-06-14T00:04:58;16.60;21.30
30459;DHT22;17254;50.976;7.034;2023-06-14T00:05:05;16.60;21.50
30459;DHT22;17254;50.976;7.034;2023-06-14T00:05:11;16.70;21.70
30459;DHT22;17254;50.976;7.034;2023-06-14T00:05:17;16.70;21.60
30459;DHT22;17254;50.976;7.034;2023-06-14T00:05:23;16.60;21.50
30459;DHT22;17254;50.976;7.034;2023-06-14T00:05:29;16.60;21.40
30459;DHT22;17254;50.976;7.034;2023-06-14T00:05:39;16.70;21.30
30459;DHT22;17254;50.976;7.034;2023-06-14T00:05:48;16.60;21.00
30459;DHT22;17254;50.976;7.034;2023-06-14T00:05:54;16.60;21.10
30459;DHT22;17254;50.976;7.034;2023-06-14T00:06:00;16.60;21.20
30459;DHT22;17254;50.976;7.034;2023-06-14T00:06:06;16.60;21.10
30459;DHT22;17254;50.976;7.034;2023-06-14T00:06:13;16.60;21.10
30459;DHT22;17254;50.976;7.034;2023-06-14T00:06:19;16.60;21.00
30459;DHT22;17254;50.976;7.034;2023-06-14T00:06:24;16.60;21.00
30459;DHT22;17254;50.976;7.034;2023-06-14T00:06:31;16.60;20.90
30459;DHT22;17254;50.976;7.034;2023-06-14T00:06:36;16.60;20.80
30459;DHT22;17254;50.976;7.034;2023-06-14T00:06:45;16.60;21.20
30459;DHT22;17254;50.976;7.034;2023-06-14T00:06:51;16.60;21.40
30459;DHT22;17254;50.976;7.034;2023-06-14T00:06:56;16.60;21.50
30459;DHT22;17254;50.976;7.034;2023-06-14T00:07:02;16.60;21.60
30459;DHT22;17254;50.976;7.034;2023-06-14T00:07:09;16.60;21.70
30459;DHT22;17254;50.976;7.034;2023-06-14T00:07:14;16.60;22.10
30459;DHT22;17254;50.976;7.034;2023-06-14T00:07:33;16.60;21.90
30459;DHT22;17254;50.976;7.034;2023-06-14T00:07:41;16.70;22.10
30459;DHT22;17254;50.976;7.034;2023-06-14T00:07:49;16.60;22.10
30459;DHT22;17254;50.976;7.034;2023-06-14T00:07:54;16.70;22.10
30459;DHT22;17254;50.976;7.034;2023-06-14T00:08:00;16.70;22.00
30459;DHT22;17254;50.976;7.034;2023-06-14T00:08:06;16.70;21.90
30459;DHT22;17254;50.976;7.034;2023-06-14T00:08:14;16.70;21.80
30459;DHT22;17254;50.976;7.034;2023-06-14T00:08:20;16.70;21.70
30459;DHT22;17254;50.976;7.034;2023-06-14T00:08:28;16.70;21.60
30459;DHT22;17254;50.976;7.034;2023-06-14T00:08:34;16.70;22.10
30459;DHT22;17254;50.976;7.034;2023-06-14T00:08:40;16.60;22.00
30459;DHT22;17254;50.976;7.034;2023-06-14T00:08:46;16.60;21.60
30459;DHT22;17254;50.976;7.034;2023-06-14T00:08:52;16.60;21.60
30459;DHT22;17254;50.976;7.034;2023-06-14T00:08:59;16.60;21.80
30459;DHT22;17254;50.976;7.034;2023-06-14T00:09:05;16.60;21.90
30459;DHT22;17254;50.976;7.034;2023-06-14T00:09:14;16.60;22.00
30459;DHT22;17254;50.976;7.034;2023-06-14T00:09:23;16.70;22.00
30459;DHT22;17254;50.976;7.034;2023-06-14T00:09:28;16.70;22.00
30459;DHT22;17254;50.976;7.034;2023-06-14T00:09:35;16.60;21.90
30459;DHT22;17254;50.976;7.034;2023-06-14T00:09:41;16.70;21.80
30459;DHT22;17254;50.976;7.034;2023-06-14T00:09:46;16.70;22.20
30459;DHT22;17254;50.976;7.034;2023-06-14T00:09:52;16.60;21.60
30459;DHT22;17254;50.976;7.034;2023-06-14T00:09:58;16.70;21.60
30459;DHT22;17254;50.976;7.034;2023-06-14T00:10:05;16.70;21.50
30459;DHT22;17254;50.976;7.034;2023-06-14T00:10:11;16.60;21.40
30459;DHT22;17254;50.976;7.034;2023-06-14T00:10:17;16.60;21.40
30459;DHT22;17254;50.976;7.034;2023-06-14T00:10:23;16.60;21.50
30459;DHT22;17254;50.976;7.034;2023-06-14T00:10:29;16.60;21.70
30459;DHT22;17254;50.976;7.034;2023-06-14T00:10:37;16.60;21.90
30459;DHT22;17254;50.976;7.034;2023-06-14T00:10:46;16.60;22.10
30459;DHT22;17254;50.976;7.034;2023-06-14T00:10:52;16.60;22.10
30459;DHT22;17254;50.976;7.034;2023-06-14T00:10:59;16.60;22.00
30459;DHT22;17254;50.976;7.034;2023-06-14T00:11:05;16.60;22.40
30459;DHT22;17254;50.976;7.034;2023-06-14T00:11:11;16.60;21.90
30459;DHT22;17254;50.976;7.034;2023-06-14T00:11:17;16.60;22.00
30459;DHT22;17254;50.976;7.034;2023-06-14T00:11:23;16.60;22.00
30459;DHT22;17254;50.976;7.034;2023-06-14T00:11:29;16.60;21.90
30459;DHT22;17254;50.976;7.034;2023-06-14T00:11:36;16.60;21.80
30459;DHT22;17254;50.976;7.034;2023-06-14T00:11:42;16.60;21.80
30459;DHT22;17254;50.976;7.034;2023-06-14T00:11:48;16.60;21.70
30459;DHT22;17254;50.976;7.034;2023-06-14T00:11:54;16.50;21.60
30459;DHT22;17254;50.976;7.034;2023-06-14T00:11:59;16.50;21.60
30459;DHT22;17254;50.976;7.034;2023-06-14T00:12:07;16.50;21.70
30459;DHT22;17254;50.976;7.034;2023-06-14T00:12:14;16.50;21.80
30459;DHT22;17254;50.976;7.034;2023-06-14T00:12:20;16.50;21.80
30459;DHT22;17254;50.976;7.034;2023-06-14T00:12:25;16.50;21.90
30459;DHT22;17254;50.976;7.034;2023-06-14T00:12:31;16.50;22.40
30459;DHT22;17254;50.976;7.034;2023-06-14T00:12:38;16.50;22.80
30459;DHT22;17254;50.976;7.034;2023-06-14T00:12:44;16.50;22.90
30459;DHT22;17254;50.976;7.034;2023-06-14T00:12:53;16.50;23.00
30459;DHT22;17254;50.976;7.034;2023-06-14T00:12:59;16.50;23.50
30459;DHT22;17254;50.976;7.034;2023-06-14T00:13:05;16.50;23.90
30459;DHT22;17254;50.976;7.034;2023-06-14T00:13:12;16.60;24.30
30459;DHT22;17254;50.976;7.034;2023-06-14T00:13:18;16.60;24.40
30459;DHT22;17254;50.976;7.034;2023-06-14T00:13:24;16.60;24.30
30459;DHT22;17254;50.976;7.034;2023-06-14T00:13:31;16.60;24.30
30459;DHT22;17254;50.976;7.034;2023-06-14T00:13:37;16.60;24.20
30459;DHT22;17254;50.976;7.034;2023-06-14T00:13:43;16.60;24.10
30459;DHT22;17254;50.976;7.034;2023-06-14T00:13:48;16.60;24.10
30459;DHT22;17254;50.976;7.034;2023-06-14T00:13:54;16.60;24.00
30459;DHT22;17254;50.976;7.034;2023-06-14T00:14:00;16.60;24.10
30459;DHT22;17254;50.976;7.034;2023-06-14T00:14:06;16.60;24.40
30459;DHT22;17254;50.976;7.034;2023-06-14T00:14:12;16.60;24.70
30459;DHT22;17254;50.976;7.034;2023-06-14T00:14:18;16.60;24.80
30459;DHT22;17254;50.976;7.034;2023-06-14T00:14:25;16.60;24.80
30459;DHT22;17254;50.976;7.034;2023-06-14T00:14:30;16.60;24.70
30459;DHT22;17254;50.976;7.034;2023-06-14T00:14:36;16.60;24.70
30459;DHT22;17254;50.976;7.034;2023-06-14T00:14:42;16.60;24.60
30459;DHT22;17254;50.976;7.034;2023-06-14T00:14:49;16.60;24.50
30459;DHT22;17254;50.976;7.034;2023-06-14T00:14:55;16.50;24.30
30459;DHT22;17254;50.976;7.034;2023-06-14T00:15:01;16.50;24.30
30459;DHT22;17254;50.976;7.034;2023-06-14T00:15:08;16.50;24.40
30459;DHT22;17254;50.976;7.034;2023-06-14T00:15:15;16.60;24.80
30459;DHT22;17254;50.976;7.034;2023-06-14T00:15:21;16.60;25.00
30459;DHT22;17254;50.976;7.034;2023-06-14T00:15:26;16.50;25.00
30459;DHT22;17254;50.976;7.034;2023-06-14T00:15:33;16.50;25.50
30459;DHT22;17254;50.976;7.034;2023-06-14T00:15:39;16.50;25.00
30459;DHT22;17254;50.976;7.034;2023-06-14T00:15:46;16.50;25.00
30459;DHT22;17254;50.976;7.034;2023-06-14T00:15:52;16.50;25.00
30459;DHT22;17254;50.976;7.034;2023-06-14T00:16:00;16.50;24.90
30459;DHT22;17254;50.976;7.034;2023-06-14T00:16:06;16.50;25.10
30459;DHT22;17254;50.976;7.034;2023-06-14T00:16:12;16.50;25.40
30459;DHT22;17254;50.976;7.034;2023-06-14T00:16:18;16.50;25.70
30459;DHT22;17254;50.976;7.034;2023-06-14T00:16:24;16.50;26.00
30459;DHT22;17254;50.976;7.034;2023-06-14T00:16:31;16.50;26.20
30459;DHT22;17254;50.976;7.034;2023-06-14T00:16:39;16.60;26.30
30459;DHT22;17254;50.976;7.034;2023-06-14T00:16:48;16.50;26.30
30459;DHT22;17254;50.976;7.034;2023-06-14T00:16:53;16.50;26.20
30459;DHT22;17254;50.976;7.034;2023-06-14T00:17:04;16.50;26.40
30459;DHT22;17254;50.976;7.034;2023-06-14T00:17:10;16.50;27.10
30459;DHT22;17254;50.976;7.034;2023-06-14T00:17:16;16.50;26.80
30459;DHT22;17254;50.976;7.034;2023-06-14T00:17:22;16.50;26.80
30459;DHT22;17254;50.976;7.034;2023-06-14T00:17:29;16.50;26.80
30459;DHT22;17254;50.976;7.034;2023-06-14T00:17:35;16.50;26.80
30459;DHT22;17254;50.976;7.034;2023-06-14T00:17:42;16.60;26.80
30459;DHT22;17254;50.976;7.034;2023-06-14T00:17:47;16.50;26.70
30459;DHT22;17254;50.976;7.034;2023-06-14T00:17:53;16.50;26.60
30459;DHT22;17254;50.976;7.034;2023-06-14T00:18:02;16.50;26.50
30459;DHT22;17254;50.976;7.034;2023-06-14T00:18:08;16.50;26.40
30459;DHT22;17254;50.976;7.034;2023-06-14T00:18:17;16.50;26.30
30459;DHT22;17254;50.976;7.034;2023-06-14T00:18:23;16.50;26.40
30459;DHT22;17254;50.976;7.034;2023-06-14T00:18:29;16.40;26.30
30459;DHT22;17254;50.976;7.034;2023-06-14T00:18:36;16.40;26.30
30459;DHT22;17254;50.976;7.034;2023-06-14T00:18:42;16.40;26.30
30459;DHT22;17254;50.976;7.034;2023-06-14T00:18:48;16.40;26.30
30459;DHT22;17254;50.976;7.034;2023-06-14T00:18:54;16.40;26.30
30459;DHT22;17254;50.976;7.034;2023-06-14T00:19:00;16.40;26.20
30459;DHT22;17254;50.976;7.034;2023-06-14T00:19:10;16.40;26.20
30459;DHT22;17254;50.976;7.034;2023-06-14T00:19:16;16.40;26.20
30459;DHT22;17254;50.976;7.034;2023-06-14T00:19:22;16.30;26.20
30459;DHT22;17254;50.976;7.034;2023-06-14T00:19:29;16.30;26.20
30459;DHT22;17254;50.976;7.034;2023-06-14T00:19:36;16.30;26.20
30459;DHT22;17254;50.976;7.034;2023-06-14T00:19:42;16.30;26.20
30459;DHT22;17254;50.976;7.034;2023-06-14T00:19:48;16.30;26.20
30459;DHT22;17254;50.976;7.034;2023-06-14T00:19:54;16.30;26.40
30459;DHT22;17254;50.976;7.034;2023-06-14T00:20:02;16.30;26.60
30459;DHT22;17254;50.976;7.034;2023-06-14T00:20:09;16.30;26.60
30459;DHT22;17254;50.976;7.034;2023-06-14T00:20:16;16.30;26.70
30459;DHT22;17254;50.976;7.034;2023-06-14T00:20:21;16.30;26.60
30459;DHT22;17254;50.976;7.034;2023-06-14T00:20:28;16.20;26.60
30459;DHT22;17254;50.976;7.034;2023-06-14T00:20:34;16.20;26.80
30459;DHT22;17254;50.976;7.034;2023-06-14T00:20:40;16.20;26.90
30459;DHT22;17254;50.976;7.034;2023-06-14T00:20:47;16.20;27.00
30459;DHT22;17254;50.976;7.034;2023-06-14T00:20:53;16.20;26.90
30459;DHT22;17254;50.976;7.034;2023-06-14T00:20:59;16.20;26.90
30459;DHT22;17254;50.976;7.034;2023-06-14T00:21:05;16.20;27.00
30459;DHT22;17254;50.976;7.034;2023-06-14T00:21:11;16.20;27.10
30459;DHT22;17254;50.976;7.034;2023-06-14T00:21:17;16.20;27.20
30459;DHT22;17254;50.976;7.034;2023-06-14T00:21:24;16.20;27.20
30459;DHT22;17254;50.976;7.034;2023-06-14T00:21:30;16.20;27.10
30459;DHT22;17254;50.976;7.034;2023-06-14T00:21:36;16.20;27.10
30459;DHT22;17254;50.976;7.034;2023-06-14T00:21:43;16.20;27.10
30459;DHT22;17254;50.976;7.034;2023-06-14T00:21:49;16.20;27.00
30459;DHT22;17254;50.976;7.034;2023-06-14T00:21:55;16.20;27.10
30459;DHT22;17254;50.976;7.034;2023-06-14T00:22:02;16.20;27.10
30459;DHT22;17254;50.976;7.034;2023-06-14T00:22:08;16.20;27.10
30459;DHT22;17254;50.976;7.034;2023-06-14T00:22:15;16.20;27.00
30459;DHT22;17254;50.976;7.034;2023-06-14T00:22:21;16.20;27.00
30459;DHT22;17254;50.976;7.034;2023-06-14T00:22:27;16.20;27.10
30459;DHT22;17254;50.976;7.034;2023-06-14T00:22:34;16.10;27.00
30459;DHT22;17254;50.976;7.034;2023-06-14T00:22:42;16.20;27.00
30459;DHT22;17254;50.976;7.034;2023-06-14T00:22:48;16.10;27.00
30459;DHT22;17254;50.976;7.034;2023-06-14T00:22:54;16.10;27.00
30459;DHT22;17254;50.976;7.034;2023-06-14T00:23:01;16.10;27.10
30459;DHT22;17254;50.976;7.034;2023-06-14T00:23:07;16.10;27.10
30459;DHT22;17254;50.976;7.034;2023-06-14T00:23:13;16.10;27.10
30459;DHT22;17254;50.976;7.034;2023-06-14T00:23:19;16.10;27.20
30459;DHT22;17254;50.976;7.034;2023-06-14T00:23:25;16.10;27.20
30459;DHT22;17254;50.976;7.034;2023-06-14T00:23:31;16.10;27.20
30459;DHT22;17254;50.976;7.034;2023-06-14T00:23:36;16.10;27.30
30459;DHT22;17254;50.976;7.034;2023-06-14T00:23:42;16.10;27.50
30459;DHT22;17254;50.976;7.034;2023-06-14T00:23:48;16.10;28.30
30459;DHT22;17254;50.976;7.034;2023-06-14T00:23:54;16.10;28.10
30459;DHT22;17254;50.976;7.034;2023-06-14T00:24:01;16.10;28.20
30459;DHT22;17254;50.976;7.034;2023-06-14T00:24:07;16.10;28.10
30459;DHT22;17254;50.976;7.034;2023-06-14T00:24:13;16.10;28.10
30459;DHT22;17254;50.976;7.034;2023-06-14T00:24:20;16.10;28.00
30459;DHT22;17254;50.976;7.034;2023-06-14T00:24:26;16.10;28.10
30459;DHT22;17254;50.976;7.034;2023-06-14T00:24:31;16.10;28.20
30459;DHT22;17254;50.976;7.034;2023-06-14T00:24:37;16.10;28.20
30459;DHT22;17254;50.976;7.034;2023-06-14T00:24:43;16.10;28.30
30459;DHT22;17254;50.976;7.034;2023-06-14T00:24:50;16.10;28.30
30459;DHT22;17254;50.976;7.034;2023-06-14T00:24:56;16.10;28.30
30459;DHT22;17254;50.976;7.034;2023-06-14T00:25:02;16.10;28.30
30459;DHT22;17254;50.976;7.034;2023-06-14T00:25:08;16.10;28.30
30459;DHT22;17254;50.976;7.034;2023-06-14T00:25:14;16.10;28.20
30459;DHT22;17254;50.976;7.034;2023-06-14T00:25:21;16.00;28.10
30459;DHT22;17254;50.976;7.034;2023-06-14T00:25:28;16.10;28.20
30459;DHT22;17254;50.976;7.034;2023-06-14T00:25:34;16.00;28.10
30459;DHT22;17254;50.976;7.034;2023-06-14T00:25:40;16.10;28.10
30459;DHT22;17254;50.976;7.034;2023-06-14T00:25:46;16.00;28.30
30459;DHT22;17254;50.976;7.034;2023-06-14T00:25:52;16.00;28.30
30459;DHT22;17254;50.976;7.034;2023-06-14T00:25:58;16.10;28.40
30459;DHT22;17254;50.976;7.034;2023-06-14T00:26:04;16.00;28.30
30459;DHT22;17254;50.976;7.034;2023-06-14T00:26:10;16.10;28.50
30459;DHT22;17254;50.976;7.034;2023-06-14T00:26:18;16.00;28.50
30459;DHT22;17254;50.976;7.034;2023-06-14T00:26:24;16.00;28.50
30459;DHT22;17254;50.976;7.034;2023-06-14T00:26:31;16.10;28.50
30459;DHT22;17254;50.976;7.034;2023-06-14T00:26:37;16.10;28.50
30459;DHT22;17254;50.976;7.034;2023-06-14T00:26:44;16.10;28.70
30459;DHT22;17254;50.976;7.034;2023-06-14T00:26:50;16.10;28.80
30459;DHT22;17254;50.976;7.034;2023-06-14T00:26:56;16.10;28.90
30459;DHT22;17254;50.976;7.034;2023-06-14T00:27:02;16.10;28.80
30459;DHT22;17254;50.976;7.034;2023-06-14T00:27:09;16.10;28.70
30459;DHT22;17254;50.976;7.034;2023-06-14T00:27:15;16.10;28.60
30459;DHT22;17254;50.976;7.034;2023-06-14T00:27:21;16.10;28.70
30459;DHT22;17254;50.976;7.034;2023-06-14T00:27:27;16.00;28.60
30459;DHT22;17254;50.976;7.034;2023-06-14T00:27:33;16.10;28.70
30459;DHT22;17254;50.976;7.034;2023-06-14T00:27:39;16.00;28.50
30459;DHT22;17254;50.976;7.034;2023-06-14T00:27:44;16.10;28.50
30459;DHT22;17254;50.976;7.034;2023-06-14T00:27:51;16.00;28.50
30459;DHT22;17254;50.976;7.034;2023-06-14T00:27:57;16.00;28.50
30459;DHT22;17254;50.976;7.034;2023-06-14T00:28:04;16.00;28.80
30459;DHT22;17254;50.976;7.034;2023-06-14T00:28:10;16.00;29.00
30459;DHT22;17254;50.976;7.034;2023-06-14T00:28:16;16.00;29.40
30459;DHT22;17254;50.976;7.034;2023-06-14T00:28:23;16.00;29.50
30459;DHT22;17254;50.976;7.034;2023-06-14T00:28:29;16.00;29.60
30459;DHT22;17254;50.976;7.034;2023-06-14T00:28:35;16.10;29.60
30459;DHT22;17254;50.976;7.034;2023-06-14T00:28:40;16.00;29.50
30459;DHT22;17254;50.976;7.034;2023-06-14T00:28:46;16.10;29.50
30459;DHT22;17254;50.976;7.034;2023-06-14T00:28:53;16.10;29.60
30459;DHT22;17254;50.976;7.034;2023-06-14T00:28:58;16.10;29.70
30459;DHT22;17254;50.976;7.034;2023-06-14T00:29:05;16.00;29.70
30459;DHT22;17254;50.976;7.034;2023-06-14T00:29:11;16.10;29.80
30459;DHT22;17254;50.976;7.034;2023-06-14T00:29:17;16.00;29.70
30459;DHT22;17254;50.976;7.034;2023-06-14T00:29:23;16.00;29.70
30459;DHT22;17254;50.976;7.034;2023-06-14T00:29:29;16.00;30.00
30459;DHT22;17254;50.976;7.034;2023-06-14T00:29:35;16.10;30.20
30459;DHT22;17254;50.976;7.034;2023-06-14T00:29:43;16.10;30.20
30459;DHT22;17254;50.976;7.034;2023-06-14T00:29:49;16.10;30.00
30459;DHT22;17254;50.976;7.034;2023-06-14T00:29:56;16.10;29.80
30459;DHT22;17254;50.976;7.034;2023-06-14T00:30:06;16.10;29.60
30459;DHT22;17254;50.976;7.034;2023-06-14T00:30:13;16.10;29.50
30459;DHT22;17254;50.976;7.034;2023-06-14T00:30:19;16.10;29.50
30459;DHT22;17254;50.976;7.034;2023-06-14T00:30:25;16.10;29.20
30459;DHT22;17254;50.976;7.034;2023-06-14T00:30:36;16.10;29.00
30459;DHT22;17254;50.976;7.034;2023-06-14T00:30:42;16.10;28.90
30459;DHT22;17254;50.976;7.034;2023-06-14T00:30:49;16.10;28.80
30459;DHT22;17254;50.976;7.034;2023-06-14T00:30:55;16.10;29.00
30459;DHT22;17254;50.976;7.034;2023-06-14T00:31:01;16.10;29.10
30459;DHT22;17254;50.976;7.034;2023-06-14T00:31:08;16.10;29.00
30459;DHT22;17254;50.976;7.034;2023-06-14T00:31:13;16.10;29.30
30459;DHT22;17254;50.976;7.034;2023-06-14T00:31:20;16.10;29.40
30459;DHT22;17254;50.976;7.034;2023-06-14T00:31:26;16.10;29.30
30459;DHT22;17254;50.976;7.034;2023-06-14T00:31:33;16.10;29.40
30459;DHT22;17254;50.976;7.034;2023-06-14T00:31:39;16.10;29.60
30459;DHT22;17254;50.976;7.034;2023-06-14T00:31:45;16.10;29.70
30459;DHT22;17254;50.976;7.034;2023-06-14T00:31:51;16.10;29.80
30459;DHT22;17254;50.976;7.034;2023-06-14T00:31:58;16.20;30.00
30459;DHT22;17254;50.976;7.034;2023-06-14T00:32:06;16.10;29.90
30459;DHT22;17254;50.976;7.034;2023-06-14T00:32:13;16.10;29.80
30459;DHT22;17254;50.976;7.034;2023-06-14T00:32:19;16.20;29.70
30459;DHT22;17254;50.976;7.034;2023-06-14T00:32:24;16.20;29.70
30459;DHT22;17254;50.976;7.034;2023-06-14T00:32:31;16.20;29.70
30459;DHT22;17254;50.976;7.034;2023-06-14T00:32:37;16.10;29.60
30459;DHT22;17254;50.976;7.034;2023-06-14T00:32:43;16.20;29.80
30459;DHT22;17254;50.976;7.034;2023-06-14T00:32:49;16.20;29.80
30459;DHT22;17254;50.976;7.034;2023-06-14T00:32:57;16.20;29.70
30459;DHT22;17254;50.976;7.034;2023-06-14T00:33:04;16.20;29.70
30459;DHT22;17254;50.976;7.034;2023-06-14T00:33:10;16.20;29.60
30459;DHT22;17254;50.976;7.034;2023-06-14T00:33:16;16.20;29.40
30459;DHT22;17254;50.976;7.034;2023-06-14T00:33:23;16.20;29.20
30459;DHT22;17254;50.976;7.034;2023-06-14T00:33:30;16.20;29.10
30459;DHT22;17254;50.976;7.034;2023-06-14T00:33:36;16.20;28.90
30459;DHT22;17254;50.976;7.034;2023-06-14T00:33:41;16.20;28.80
30459;DHT22;17254;50.976;7.034;2023-06-14T00:33:47;16.10;28.70
30459;DHT22;17254;50.976;7.034;2023-06-14T00:33:53;16.20;28.70
30459;DHT22;17254;50.976;7.034;2023-06-14T00:33:59;16.20;28.70
30459;DHT22;17254;50.976;7.034;2023-06-14T00:34:06;16.10;28.60
30459;DHT22;17254;50.976;7.034;2023-06-14T00:34:13;16.10;29.00
30459;DHT22;17254;50.976;7.034;2023-06-14T00:34:20;16.10;28.50
30459;DHT22;17254;50.976;7.034;2023-06-14T00:34:26;16.10;28.70
30459;DHT22;17254;50.976;7.034;2023-06-14T00:34:32;16.10;29.00
30459;DHT22;17254;50.976;7.034;2023-06-14T00:34:38;16.10;29.10
30459;DHT22;17254;50.976;7.034;2023-06-14T00:34:44;16.10;29.20
30459;DHT22;17254;50.976;7.034;2023-06-14T00:34:50;16.20;29.30
30459;DHT22;17254;50.976;7.034;2023-06-14T00:34:55;16.20;29.30
30459;DHT22;17254;50.976;7.034;2023-06-14T00:35:01;16.20;29.30
30459;DHT22;17254;50.976;7.034;2023-06-14T00:35:08;16.20;29.20
30459;DHT22;17254;50.976;7.034;2023-06-14T00:35:16;16.20;29.30
30459;DHT22;17254;50.976;7.034;2023-06-14T00:35:22;16.20;29.40
30459;DHT22;17254;50.976;7.034;2023-06-14T00:35:28;16.20;29.50
30459;DHT22;17254;50.976;7.034;2023-06-14T00:35:36;16.20;29.40
30459;DHT22;17254;50.976;7.034;2023-06-14T00:35:43;16.30;29.40
30459;DHT22;17254;50.976;7.034;2023-06-14T00:35:50;16.30;29.20
30459;DHT22;17254;50.976;7.034;2023-06-14T00:35:55;16.30;29.10
30459;DHT22;17254;50.976;7.034;2023-06-14T00:36:01;16.30;29.00
30459;DHT22;17254;50.976;7.034;2023-06-14T00:36:07;16.30;29.00
30459;DHT22;17254;50.976;7.034;2023-06-14T00:36:14;16.30;29.00
30459;DHT22;17254;50.976;7.034;2023-06-14T00:36:20;16.30;28.90
30459;DHT22;17254;50.976;7.034;2023-06-14T00:36:26;16.30;28.80
30459;DHT22;17254;50.976;7.034;2023-06-14T00:36:31;16.30;28.60
30459;DHT22;17254;50.976;7.034;2023-06-14T00:36:37;16.30;28.30
30459;DHT22;17254;50.976;7.034;2023-06-14T00:36:43;16.30;28.20
30459;DHT22;17254;50.976;7.034;2023-06-14T00:36:49;16.30;28.10
30459;DHT22;17254;50.976;7.034;2023-06-14T00:36:55;16.30;28.50
30459;DHT22;17254;50.976;7.034;2023-06-14T00:37:02;16.30;28.20
30459;DHT22;17254;50.976;7.034;2023-06-14T00:37:08;16.30;28.10
30459;DHT22;17254;50.976;7.034;2023-06-14T00:37:14;16.30;28.00
30459;DHT22;17254;50.976;7.034;2023-06-14T00:37:22;16.30;27.90
30459;DHT22;17254;50.976;7.034;2023-06-14T00:37:28;16.30;27.80
30459;DHT22;17254;50.976;7.034;2023-06-14T00:37:34;16.30;27.90
30459;DHT22;17254;50.976;7.034;2023-06-14T00:37:41;16.30;27.90
30459;DHT22;17254;50.976;7.034;2023-06-14T00:37:48;16.30;27.90
30459;DHT22;17254;50.976;7.034;2023-06-14T00:37:53;16.30;27.90
30459;DHT22;17254;50.976;7.034;2023-06-14T00:38:00;16.30;27.90
30459;DHT22;17254;50.976;7.034;2023-06-14T00:38:07;16.30;28.10
30459;DHT22;17254;50.976;7.034;2023-06-14T00:38:13;16.30;28.10
30459;DHT22;17254;50.976;7.034;2023-06-14T00:38:20;16.30;28.10
30459;DHT22;17254;50.976;7.034;2023-06-14T00:38:26;16.30;28.00
30459;DHT22;17254;50.976;7.034;2023-06-14T00:38:31;16.20;27.90
30459;DHT22;17254;50.976;7.034;2023-06-14T00:38:37;16.20;28.10
30459;DHT22;17254;50.976;7.034;2023-06-14T00:38:43;16.20;28.20
30459;DHT22;17254;50.976;7.034;2023-06-14T00:38:49;16.20;28.40
30459;DHT22;17254;50.976;7.034;2023-06-14T00:38:55;16.20;28.60
30459;DHT22;17254;50.976;7.034;2023-06-14T00:39:01;16.30;28.80
30459;DHT22;17254;50.976;7.034;2023-06-14T00:39:09;16.30;28.70
30459;DHT22;17254;50.976;7.034;2023-06-14T00:39:15;16.30;28.60
30459;DHT22;17254;50.976;7.034;2023-06-14T00:39:21;16.30;28.50
30459;DHT22;17254;50.976;7.034;2023-06-14T00:39:27;16.30;28.40
30459;DHT22;17254;50.976;7.034;2023-06-14T00:39:32;16.30;28.30
30459;DHT22;17254;50.976;7.034;2023-06-14T00:39:39;16.30;28.20
30459;DHT22;17254;50.976;7.034;2023-06-14T00:39:45;16.30;28.00
30459;DHT22;17254;50.976;7.034;2023-06-14T00:39:52;16.30;28.00
30459;DHT22;17254;50.976;7.034;2023-06-14T00:39:59;16.30;28.00
30459;DHT22;17254;50.976;7.034;2023-06-14T00:40:05;16.30;28.10
30459;DHT22;17254;50.976;7.034;2023-06-14T00:40:12;16.30;28.10
30459;DHT22;17254;50.976;7.034;2023-06-14T00:40:18;16.30;28.00
30459;DHT22;17254;50.976;7.034;2023-06-14T00:40:25;16.30;28.00
30459;DHT22;17254;50.976;7.034;2023-06-14T00:40:30;16.30;28.00
30459;DHT22;17254;50.976;7.034;2023-06-14T00:40:36;16.30;28.10
30459;DHT22;17254;50.976;7.034;2023-06-14T00:40:42;16.40;27.90